• Join FlightAware (Why Join?)
  • Login
  • US Flag 
10:03PM EDT


 

Airport Tracker/Info


-or-


 

Live Flight TrackerFlight Track Log ✈ N30898 ✈ 12-Oct-2013 ✈ KOLV - KMQY

Flight Track Log - Related Links

Times and Time Zones

All times are in EDT time to prevent confusion due to time zone crossing. See the N30898 flight status page for this flight to view local times or setup timezone preferences in your user account.

Time Position Orientation Groundspeed Altitude Reporting Facility
EDT Latitude Longitude Course Direction KTS MPH feet Rate Location/Type
10:17AM 34.9500 -89.7167 117° Southeast 167 192 2,700  Level KMEM
10:18AM 34.9500 -89.6667 90° East 156 180 4,100 1,380 Climbing KMEM
10:18AM 34.9500 -89.6333 90° East 151 174 5,100 1,320 Climbing KMEM
10:19AM 34.9667 -89.5833 68° East 155 178 6,500 1,320 Climbing KMEM
10:20AM 35.0000 -89.5500 39° Northeast 156 180 7,800 1,320 Climbing KMEM
10:21AM 35.0333 -89.5167 39° Northeast 155 178 9,200 1,440 Climbing KMEM
10:22AM 35.0667 -89.4833 39° Northeast 155 178 10,800 1,200 Climbing KMEM
10:23AM 35.1000 -89.4333 51° Northeast 169 194 11,700 900 Climbing KMEM
10:24AM 35.1247 -89.4100 38° Northeast 176 203 12,300 1,020 Climbing Memphis Center
10:25AM 35.1597 -89.3692 44° Northeast 218 251 13,400 780 Climbing Memphis Center
10:26AM 35.1906 -89.3153 55° Northeast 211 243 13,900 540 Climbing Memphis Center
10:27AM 35.2108 -89.2439 71° East 206 237 14,500 840 Climbing Memphis Center
10:28AM 35.2292 -89.1828 70° East 200 230 15,600 1,020 Climbing Memphis Center
10:29AM 35.2494 -89.1189 69° East 195 224 16,600 660 Climbing Memphis Center
10:30AM 35.2717 -89.0497 69° East 202 232 17,000 180 Climbing Memphis Center
10:31AM 35.2936 -88.9756 70° East 220 253 17,000  Level Memphis Center
10:32AM 35.3139 -88.9067 70° East 230 265 17,000  Level Memphis Center
10:33AM 35.3378 -88.8300 69° East 235 270 17,000  Level Memphis Center
10:34AM 35.3619 -88.7506 70° East 240 276 17,000  Level Memphis Center
10:35AM 35.3858 -88.6711 70° East 240 276 17,000  Level Memphis Center
10:36AM 35.4100 -88.5942 69° East 240 276 17,000  Level Memphis Center
10:37AM 35.4294 -88.5147 73° East 240 276 17,000  Level Memphis Center
10:38AM 35.4533 -88.4378 69° East 240 276 17,000  Level Memphis Center
10:39AM 35.4792 -88.3556 69° East 245 282 17,000  Level Memphis Center
10:40AM 35.5031 -88.2761 70° East 245 282 17,000  Level Memphis Center
10:41AM 35.5247 -88.1989 71° East 250 288 17,000 -60 Level Memphis Center
10:42AM 35.5522 -88.1089 69° East 245 282 16,900 -60 Descending Memphis Center
10:43AM 35.5778 -88.0292 68° East 245 282 16,900  Level Memphis Center
10:44AM 35.6014 -87.9467 71° East 253 291 16,900  Level Memphis Center
10:45AM 35.6247 -87.8617 71° East 247 284 16,900  Level Memphis Center
10:46AM 35.6481 -87.7819 70° East 247 284 17,000  Climbing Memphis Center
10:47AM 35.6733 -87.6992 69° East 247 284 17,000 -600 Level Memphis Center
10:48AM 35.6906 -87.6297 73° East 247 284 15,900 -1,320 Descending Memphis Center
10:49AM 35.7119 -87.5575 70° East 235 270 14,400 -1,500 Descending Memphis Center
10:50AM 35.7311 -87.4878 71° East 224 258 13,000 -1,440 Descending Memphis Center
10:51AM 35.7525 -87.4203 69° East 213 245 11,600 -1,440 Descending Memphis Center
10:52AM 35.7719 -87.3558 70° East 208 239 10,200 -1,200 Descending Memphis Center
10:53AM 35.7911 -87.2911 70° East 202 232 9,300 -660 Descending Memphis Center
10:54AM 35.8083 -87.2264 72° East 192 221 8,900 -480 Descending Memphis Center
10:55AM 35.8211 -87.1544 78° East 187 215 8,400 -600 Descending Memphis Center
10:56AM 35.8339 -87.0897 76° East 187 215 7,700 -660 Descending Memphis Center
10:57AM 35.8489 -87.0253 74° East 187 215 7,100 -360 Descending Memphis Center
10:58AM 35.8639 -86.9553 75° East 193 222 7,000 -60 Descending Memphis Center
10:59AM 35.8764 -86.8858 77° East 203 234 7,000 -540 Level Memphis Center
11:00AM 35.8892 -86.8211 76° East 198 228 6,000 -1,020 Descending Memphis Center
11:01AM 35.9019 -86.7617 75° East 186 214 5,000 -1,020 Descending Memphis Center
11:02AM 35.9150 -86.7022 75° East 181 208 4,000 -1,020 Descending Memphis Center
11:03AM 35.9278 -86.6453 74° East 176 203 3,000 -780 Descending Memphis Center
11:04AM 35.9386 -86.5883 77° East 171 197 2,500 -420 Descending Memphis Center
11:06AM 35.9500 -86.4833 82° East 119 137 1,800 -420 Descending Nashville TRACON
11:07AM 35.9833 -86.4833 360° North 121 139 1,300 -540 Descending Nashville TRACON
11:09AM 36.0000 -86.5167 302° West  Level FlightAware Approximate
11:16AM 36.0090 -86.5201 302° West  Level Estimated
11:17AM 36.0090 -86.5201 302° West  Level Estimated
11:18AM 36.0090 -86.5201 302° West  Level Estimated
11:19AM 36.0090 -86.5201 302° West  Level Estimated
11:20AM 36.0090 -86.5201 302° West  Level Estimated
11:21AM 36.0090 -86.5201 302° West  Level Estimated
11:22AM 36.0090 -86.5201 302° West  Level Estimated
11:23AM 36.0090 -86.5201 302° West  Level Estimated
11:24AM 36.0090 -86.5201 302° West  Level Estimated